createdAt,value
2023-04-08T00:02:10.973Z,100.00
2023-04-08T00:04:40.856Z,100.00
2023-04-08T00:07:10.688Z,100.00
2023-04-08T00:09:40.724Z,100.00
2023-04-08T00:12:11.137Z,100.00
2023-04-08T00:14:44.043Z,100.00
2023-04-08T00:17:13.942Z,100.00
2023-04-08T00:19:43.835Z,100.00
2023-04-08T00:22:13.878Z,100.00
2023-04-08T00:24:43.796Z,100.00
2023-04-08T00:27:13.583Z,100.00
2023-04-08T00:29:46.763Z,100.00
2023-04-08T00:32:16.911Z,100.00
2023-04-08T00:34:46.698Z,100.00
2023-04-08T00:37:16.552Z,100.00
2023-04-08T00:39:46.830Z,100.00
2023-04-08T00:42:17.239Z,100.00
2023-04-08T00:44:49.751Z,100.00
2023-04-08T00:47:19.656Z,100.00
2023-04-08T00:49:49.488Z,100.00
2023-04-08T00:52:19.378Z,100.00
2023-04-08T00:54:49.295Z,100.00
2023-04-08T00:57:19.271Z,100.00
2023-04-08T00:59:51.783Z,100.00
2023-04-08T01:02:30.154Z,100.00
2023-04-08T01:05:06.374Z,100.00
2023-04-08T01:07:39.743Z,100.00
2023-04-08T01:10:16.348Z,99.85
2023-04-08T01:12:51.662Z,100.00
2023-04-08T01:15:25.118Z,99.48
2023-04-08T01:17:56.884Z,99.69
2023-04-08T01:20:28.565Z,99.31
2023-04-08T01:23:12.778Z,99.09
2023-04-08T01:25:43.067Z,99.01
2023-04-08T01:28:19.388Z,98.97
2023-04-08T01:30:50.936Z,99.07
2023-04-08T01:33:22.455Z,98.93
2023-04-08T01:35:52.570Z,98.91
2023-04-08T01:38:24.574Z,98.78
2023-04-08T01:40:55.319Z,98.80
2023-04-08T01:43:29.252Z,98.87
2023-04-08T01:46:01.023Z,99.05
2023-04-08T01:48:32.620Z,98.89
2023-04-08T01:51:03.787Z,98.86
2023-04-08T01:53:33.806Z,98.89
2023-04-08T01:56:09.019Z,98.87
2023-04-08T01:58:45.906Z,98.84
2023-04-08T02:01:20.211Z,98.73
2023-04-08T02:03:52.360Z,98.93
2023-04-08T02:06:22.651Z,98.91
2023-04-08T02:08:52.922Z,98.88
2023-04-08T02:11:26.065Z,98.85
2023-04-08T02:13:59.215Z,99.27
2023-04-08T02:16:35.733Z,99.14
2023-04-08T02:19:11.218Z,99.37
2023-04-08T02:21:50.419Z,99.10
2023-04-08T02:24:21.564Z,99.30
2023-04-08T02:26:54.400Z,99.21
2023-04-08T02:29:28.173Z,99.00
2023-04-08T02:31:59.102Z,98.80
2023-04-08T02:34:29.948Z,98.58
2023-04-08T02:36:59.733Z,98.60
2023-04-08T02:39:34.311Z,98.67
2023-04-08T02:42:04.203Z,98.75
2023-04-08T02:44:37.011Z,98.69
2023-04-08T02:47:06.831Z,98.36
2023-04-08T02:49:36.639Z,98.08
2023-04-08T02:52:06.628Z,98.14
2023-04-08T02:54:36.549Z,97.94
2023-04-08T02:57:06.413Z,98.13
2023-04-08T02:59:41.158Z,97.82
2023-04-08T03:02:11.042Z,97.66
2023-04-08T03:04:40.963Z,97.54
2023-04-08T03:07:11.122Z,97.29
2023-04-08T03:09:41.544Z,97.28
2023-04-08T03:12:11.469Z,96.98
2023-04-08T03:14:43.945Z,96.84
2023-04-08T03:17:13.917Z,96.69
2023-04-08T03:19:43.825Z,96.83
2023-04-08T03:22:13.706Z,96.91
2023-04-08T03:24:43.626Z,96.74
2023-04-08T03:27:14.378Z,96.61
2023-04-08T03:29:47.003Z,96.97
2023-04-08T03:32:17.132Z,96.63
2023-04-08T03:34:46.987Z,96.30
2023-04-08T03:37:16.772Z,96.47
2023-04-08T03:39:46.669Z,96.47
2023-04-08T03:42:16.488Z,96.05
2023-04-08T03:44:48.931Z,96.14
2023-04-08T03:47:18.812Z,96.27
2023-04-08T03:49:48.608Z,96.32
2023-04-08T03:52:18.503Z,96.11
2023-04-08T03:54:48.330Z,96.13
2023-04-08T03:57:18.550Z,95.92
2023-04-08T03:59:50.905Z,95.84
2023-04-08T04:02:20.951Z,95.54
2023-04-08T04:04:50.889Z,95.47
2023-04-08T04:07:20.807Z,95.38
2023-04-08T04:09:54.349Z,95.23
2023-04-08T04:12:24.152Z,95.32
2023-04-08T04:14:56.721Z,95.58
2023-04-08T04:17:26.566Z,95.84
2023-04-08T04:19:56.526Z,95.75
2023-04-08T04:22:26.407Z,95.43
2023-04-08T04:24:56.154Z,95.51
2023-04-08T04:27:26.073Z,95.13
2023-04-08T04:29:58.525Z,95.33
2023-04-08T04:32:28.442Z,95.35
2023-04-08T04:34:58.304Z,95.47
2023-04-08T04:37:28.506Z,95.34
2023-04-08T04:39:58.359Z,95.42
2023-04-08T04:42:28.169Z,95.39
2023-04-08T04:45:03.149Z,95.78
2023-04-08T04:47:33.041Z,95.84
2023-04-08T04:50:02.876Z,95.83
2023-04-08T04:52:32.752Z,96.22
2023-04-08T04:55:02.622Z,96.39
2023-04-08T04:57:32.481Z,96.63
2023-04-08T05:00:05.765Z,96.96
2023-04-08T05:02:35.805Z,97.26
2023-04-08T05:05:06.163Z,97.30
2023-04-08T05:07:38.849Z,97.85
2023-04-08T05:10:09.730Z,98.53
2023-04-08T05:12:39.487Z,98.66
2023-04-08T05:15:12.781Z,99.24
2023-04-08T05:17:42.619Z,99.30
2023-04-08T05:20:12.940Z,99.10
2023-04-08T05:22:44.793Z,99.43
2023-04-08T05:25:14.913Z,99.33
2023-04-08T05:27:44.834Z,99.45
2023-04-08T05:30:17.502Z,99.30
2023-04-08T05:32:47.643Z,99.47
2023-04-08T05:35:17.485Z,99.48
2023-04-08T05:37:47.351Z,99.41
2023-04-08T05:40:17.354Z,99.71
2023-04-08T05:42:47.195Z,99.93
2023-04-08T05:45:19.662Z,100.00
2023-04-08T05:47:49.517Z,100.00
2023-04-08T05:50:19.411Z,100.00
2023-04-08T05:52:49.764Z,100.00
2023-04-08T05:55:19.558Z,100.00
2023-04-08T05:57:49.337Z,100.00
2023-04-08T06:00:22.726Z,100.00
2023-04-08T06:02:52.798Z,100.00
2023-04-08T06:05:22.934Z,100.00
2023-04-08T06:07:52.799Z,100.00
2023-04-08T06:10:22.717Z,100.00
2023-04-08T06:12:52.547Z,100.00
2023-04-08T06:15:25.279Z,100.00
2023-04-08T06:17:55.143Z,100.00
2023-04-08T06:20:25.218Z,100.00
2023-04-08T06:22:55.050Z,100.00
2023-04-08T06:25:24.983Z,100.00
2023-04-08T06:27:54.821Z,100.00
2023-04-08T06:30:27.415Z,100.00
2023-04-08T06:32:57.330Z,100.00
2023-04-08T06:35:28.409Z,100.00
2023-04-08T06:37:58.359Z,100.00
2023-04-08T06:40:28.275Z,100.00
2023-04-08T06:42:58.594Z,100.00
2023-04-08T06:45:31.101Z,100.00
2023-04-08T06:48:01.079Z,100.00
2023-04-08T06:50:30.983Z,100.00
2023-04-08T06:53:01.012Z,100.00
2023-04-08T06:55:30.858Z,100.00
2023-04-08T06:58:02.255Z,100.00
2023-04-08T07:00:46.850Z,100.00
2023-04-08T07:03:16.875Z,100.00
2023-04-08T07:05:46.946Z,100.00
2023-04-08T07:08:17.044Z,100.00
2023-04-08T07:10:46.900Z,100.00
2023-04-08T07:13:17.700Z,100.00
2023-04-08T07:15:50.154Z,100.00
2023-04-08T07:18:21.610Z,100.00
2023-04-08T07:20:54.556Z,100.00
2023-04-08T07:23:24.861Z,100.00
2023-04-08T07:25:54.700Z,100.00
2023-04-08T07:28:24.522Z,100.00
2023-04-08T07:30:57.459Z,100.00
2023-04-08T07:33:27.464Z,100.00
2023-04-08T07:35:57.324Z,100.00
2023-04-08T07:38:28.041Z,100.00
2023-04-08T07:40:57.944Z,100.00
2023-04-08T07:43:27.728Z,100.00
2023-04-08T07:46:03.641Z,100.00
2023-04-08T07:48:34.045Z,100.00
2023-04-08T07:51:08.177Z,100.00
2023-04-08T07:53:40.715Z,100.00
2023-04-08T07:56:15.397Z,100.00
2023-04-08T07:58:45.696Z,100.00
2023-04-08T08:01:22.525Z,100.00
2023-04-08T08:03:53.887Z,100.00
2023-04-08T08:06:24.159Z,100.00
2023-04-08T08:08:53.936Z,100.00
2023-04-08T08:11:23.857Z,100.00
2023-04-08T08:13:53.727Z,100.00
2023-04-08T08:16:27.582Z,100.00
2023-04-08T08:18:57.437Z,100.00
2023-04-08T08:21:27.443Z,100.00
2023-04-08T08:23:58.150Z,100.00
2023-04-08T08:26:28.909Z,100.00
2023-04-08T08:28:58.754Z,100.00
2023-04-08T08:31:31.207Z,100.00
2023-04-08T08:34:01.118Z,100.00
2023-04-08T08:36:32.749Z,100.00
2023-04-08T08:39:04.593Z,100.00
2023-04-08T08:41:37.990Z,100.00
2023-04-08T08:44:09.659Z,100.00
2023-04-08T08:46:46.921Z,100.00
2023-04-08T08:49:17.140Z,100.00
2023-04-08T08:51:49.312Z,100.00
2023-04-08T08:54:19.202Z,100.00
2023-04-08T08:56:49.286Z,100.00
2023-04-08T08:59:19.377Z,100.00
2023-04-08T09:01:51.965Z,100.00
2023-04-08T09:04:23.498Z,100.00
2023-04-08T09:07:11.402Z,100.00
2023-04-08T09:09:52.072Z,100.00
2023-04-08T09:12:22.490Z,100.00
2023-04-08T09:14:52.722Z,100.00
2023-04-08T09:17:38.196Z,100.00
2023-04-08T09:20:12.063Z,100.00
2023-04-08T09:23:00.152Z,100.00
2023-04-08T09:25:32.343Z,100.00
2023-04-08T09:28:03.225Z,100.00
2023-04-08T09:30:39.010Z,100.00
2023-04-08T09:33:11.962Z,100.00
2023-04-08T09:35:41.934Z,99.17
2023-04-08T09:38:11.754Z,98.70
2023-04-08T09:40:45.598Z,97.83
2023-04-08T09:43:18.811Z,98.50
2023-04-08T09:45:52.627Z,96.77
2023-04-08T09:48:30.837Z,96.01
2023-04-08T09:51:02.502Z,96.42
2023-04-08T09:53:37.074Z,93.03
2023-04-08T09:56:11.438Z,93.82
2023-04-08T09:58:46.487Z,93.82
2023-04-08T10:01:19.948Z,92.19
2023-04-08T10:03:57.578Z,90.02
2023-04-08T10:06:32.479Z,88.55
2023-04-08T10:09:04.566Z,88.77
2023-04-08T10:11:34.480Z,84.77
2023-04-08T10:14:05.570Z,86.82
2023-04-08T10:16:36.149Z,87.28
2023-04-08T10:19:42.370Z,83.69
2023-04-08T10:22:59.711Z,85.39
2023-04-08T10:25:34.447Z,86.22
2023-04-08T10:28:06.262Z,87.05
2023-04-08T10:30:45.864Z,86.01
2023-04-08T10:33:18.719Z,86.70
2023-04-08T10:35:57.558Z,83.10
2023-04-08T10:38:27.814Z,84.21
2023-04-08T10:40:58.644Z,82.75
2023-04-08T10:43:28.776Z,85.47
2023-04-08T10:45:58.758Z,87.00
2023-04-08T10:48:29.438Z,84.49
2023-04-08T10:51:02.988Z,83.15
2023-04-08T10:53:37.858Z,83.86
2023-04-08T10:56:09.288Z,83.91
2023-04-08T10:58:39.429Z,84.29
2023-04-08T11:01:10.514Z,83.79
2023-04-08T11:03:40.612Z,84.76
2023-04-08T11:06:13.212Z,83.93
2023-04-08T11:08:44.919Z,84.09
2023-04-08T11:11:15.043Z,83.86
2023-04-08T11:13:53.266Z,82.59
2023-04-08T11:16:24.671Z,81.86
2023-04-08T11:18:55.790Z,83.10
2023-04-08T11:21:30.657Z,83.06
2023-04-08T11:24:00.703Z,83.91
2023-04-08T11:26:30.673Z,82.14
2023-04-08T11:29:01.321Z,82.30
2023-04-08T11:31:32.212Z,82.61
2023-04-08T11:34:02.013Z,81.13
2023-04-08T11:36:36.922Z,81.93
2023-04-08T11:39:12.429Z,80.71
2023-04-08T11:41:43.284Z,80.84
2023-04-08T11:44:13.343Z,80.44
2023-04-08T11:46:46.038Z,81.52
2023-04-08T11:49:16.132Z,80.59
2023-04-08T11:52:01.006Z,75.31
2023-04-08T11:54:32.357Z,79.55
2023-04-08T11:57:03.311Z,77.02
2023-04-08T11:59:33.416Z,77.12
2023-04-08T12:02:03.488Z,76.01
2023-04-08T12:04:34.408Z,77.74
2023-04-08T12:07:07.535Z,76.92
2023-04-08T12:09:37.712Z,77.04
2023-04-08T12:12:07.628Z,76.08
2023-04-08T12:14:37.425Z,76.12
2023-04-08T12:17:07.425Z,76.06
2023-04-08T12:19:38.551Z,77.06
2023-04-08T12:22:11.223Z,77.14
2023-04-08T12:24:41.166Z,77.86
2023-04-08T12:27:13.838Z,75.87
2023-04-08T12:29:43.766Z,76.45
2023-04-08T12:32:13.783Z,75.15
2023-04-08T12:34:43.740Z,75.17
2023-04-08T12:37:16.610Z,74.35
2023-04-08T12:39:46.617Z,75.70
2023-04-08T12:42:16.688Z,73.79
2023-04-08T12:44:46.598Z,74.18
2023-04-08T12:47:16.640Z,75.09
2023-04-08T12:49:49.772Z,75.42
2023-04-08T12:52:24.437Z,74.39
2023-04-08T12:54:54.196Z,75.38
2023-04-08T12:57:24.293Z,75.04
2023-04-08T12:59:54.435Z,75.38
2023-04-08T13:02:25.824Z,75.71
2023-04-08T13:04:55.894Z,76.18
2023-04-08T13:07:28.322Z,73.07
2023-04-08T13:09:58.280Z,74.74
2023-04-08T13:12:28.138Z,75.94
2023-04-08T13:14:58.646Z,75.83
2023-04-08T13:17:28.729Z,76.06
2023-04-08T13:19:58.616Z,75.60
2023-04-08T13:22:32.402Z,75.87
2023-04-08T13:25:02.932Z,75.73
2023-04-08T13:27:32.802Z,75.16
2023-04-08T13:30:02.674Z,75.04
2023-04-08T13:32:32.798Z,75.78
2023-04-08T13:35:02.697Z,75.62
2023-04-08T13:37:35.236Z,75.66
2023-04-08T13:40:05.439Z,76.81
2023-04-08T13:42:35.619Z,76.81
2023-04-08T13:45:05.591Z,77.89
2023-04-08T13:47:37.900Z,77.07
2023-04-08T13:50:09.273Z,76.83
2023-04-08T13:52:42.249Z,76.38
2023-04-08T13:55:12.462Z,77.44
2023-04-08T13:57:42.369Z,77.18
2023-04-08T14:00:13.556Z,77.10
2023-04-08T14:02:43.947Z,76.07
2023-04-08T14:05:18.509Z,76.45
2023-04-08T14:07:51.355Z,76.71
2023-04-08T14:10:21.296Z,76.82
2023-04-08T14:12:51.221Z,77.13
2023-04-08T14:15:21.240Z,76.20
2023-04-08T14:17:51.224Z,76.42
2023-04-08T14:20:21.200Z,76.02
2023-04-08T14:22:53.947Z,76.12
2023-04-08T14:25:23.904Z,76.83
2023-04-08T14:27:58.069Z,76.37
2023-04-08T14:30:29.035Z,76.74
2023-04-08T14:32:59.493Z,76.56
2023-04-08T14:35:29.788Z,76.72
2023-04-08T14:38:02.578Z,76.46
2023-04-08T14:40:32.796Z,76.87
2023-04-08T14:43:02.799Z,77.14
2023-04-08T14:45:33.321Z,76.88
2023-04-08T14:48:03.670Z,76.85
2023-04-08T14:50:33.990Z,77.32
2023-04-08T14:53:07.093Z,76.84
2023-04-08T14:55:37.190Z,77.39
2023-04-08T14:58:09.958Z,77.60
2023-04-08T15:00:44.455Z,77.57
2023-04-08T15:03:14.514Z,78.22
2023-04-08T15:05:46.014Z,78.25
2023-04-08T15:08:18.535Z,78.13
2023-04-08T15:10:48.744Z,78.55
2023-04-08T15:13:18.723Z,77.88
2023-04-08T15:15:51.508Z,78.79
2023-04-08T15:18:21.534Z,77.81
2023-04-08T15:20:51.798Z,78.02
2023-04-08T15:23:25.075Z,77.96
2023-04-08T15:25:55.015Z,78.63
2023-04-08T15:28:24.854Z,79.30
2023-04-08T15:30:54.714Z,79.41
2023-04-08T15:33:27.508Z,78.58
2023-04-08T15:36:00.070Z,78.58
2023-04-08T15:38:33.823Z,78.40
2023-04-08T15:41:03.975Z,78.04
2023-04-08T15:43:33.953Z,78.02
2023-04-08T15:46:03.845Z,78.02
2023-04-08T15:48:35.660Z,78.40
2023-04-08T15:51:12.948Z,78.11
2023-04-08T15:53:46.104Z,78.40
2023-04-08T15:56:16.793Z,78.60
2023-04-08T15:58:47.246Z,77.87
2023-04-08T16:01:18.925Z,77.93
2023-04-08T16:03:48.979Z,78.60
2023-04-08T16:06:19.083Z,78.30
2023-04-08T16:08:51.767Z,78.68
2023-04-08T16:11:22.742Z,79.15
2023-04-08T16:13:55.256Z,79.56
2023-04-08T16:16:25.463Z,79.56
2023-04-08T16:18:56.759Z,79.33
2023-04-08T16:21:26.810Z,78.61
2023-04-08T16:24:01.102Z,78.31
2023-04-08T16:26:31.481Z,78.94
2023-04-08T16:29:02.153Z,79.05
2023-04-08T16:31:36.434Z,77.63
2023-04-08T16:34:07.397Z,78.34
2023-04-08T16:36:37.320Z,77.97
2023-04-08T16:39:09.869Z,77.41
2023-04-08T16:41:39.944Z,78.22
2023-04-08T16:44:10.174Z,79.19
2023-04-08T16:46:40.169Z,79.09
2023-04-08T16:49:13.408Z,78.80
2023-04-08T16:51:44.754Z,78.54
2023-04-08T16:54:17.317Z,78.74
2023-04-08T16:56:47.176Z,79.28
2023-04-08T16:59:17.358Z,78.90
2023-04-08T17:01:47.611Z,78.64
2023-04-08T17:04:18.569Z,79.09
2023-04-08T17:06:49.277Z,79.45
2023-04-08T17:09:22.606Z,79.27
2023-04-08T17:11:52.717Z,79.26
2023-04-08T17:14:22.588Z,79.03
2023-04-08T17:16:52.618Z,78.85
2023-04-08T17:19:22.643Z,79.57
2023-04-08T17:21:52.599Z,79.52
2023-04-08T17:24:25.173Z,78.70
2023-04-08T17:26:57.020Z,79.11
2023-04-08T17:29:26.943Z,79.25
2023-04-08T17:31:57.165Z,79.12
2023-04-08T17:34:27.701Z,79.18
2023-04-08T17:36:57.661Z,79.63
2023-04-08T17:39:30.498Z,80.03
2023-04-08T17:42:02.562Z,80.25
2023-04-08T17:44:32.617Z,80.63
2023-04-08T17:47:02.764Z,80.65
2023-04-08T17:49:32.867Z,80.73
2023-04-08T17:52:03.111Z,80.73
2023-04-08T17:54:36.227Z,80.15
2023-04-08T17:57:06.267Z,80.10
2023-04-08T17:59:36.488Z,80.45
2023-04-08T18:02:06.709Z,81.02
2023-04-08T18:04:36.888Z,80.58
2023-04-08T18:07:07.124Z,81.05
2023-04-08T18:09:41.211Z,80.86
2023-04-08T18:12:11.958Z,80.90
2023-04-08T18:14:42.333Z,81.28
2023-04-08T18:17:12.676Z,81.27
2023-04-08T18:19:42.501Z,81.21
2023-04-08T18:22:12.396Z,81.19
2023-04-08T18:24:44.899Z,80.86
2023-04-08T18:27:14.844Z,81.24
2023-04-08T18:29:44.972Z,81.12
2023-04-08T18:32:15.203Z,81.41
2023-04-08T18:34:45.149Z,81.81
2023-04-08T18:37:17.126Z,81.77
2023-04-08T18:39:49.715Z,81.85
2023-04-08T18:42:19.800Z,82.19
2023-04-08T18:44:49.851Z,82.37
2023-04-08T18:47:20.314Z,82.54
2023-04-08T18:49:50.217Z,82.65
2023-04-08T18:52:20.122Z,82.62
2023-04-08T18:54:53.139Z,82.64
2023-04-08T18:57:23.374Z,83.04
2023-04-08T18:59:53.267Z,82.78
2023-04-08T19:02:23.447Z,83.13
2023-04-08T19:04:53.518Z,82.95
2023-04-08T19:07:23.461Z,83.19
2023-04-08T19:09:59.480Z,83.41
2023-04-08T19:12:30.082Z,83.75
2023-04-08T19:15:02.659Z,83.18
2023-04-08T19:17:32.714Z,83.20
2023-04-08T19:20:03.674Z,83.52
2023-04-08T19:22:33.712Z,83.50
2023-04-08T19:25:09.311Z,83.51
2023-04-08T19:27:39.635Z,83.11
2023-04-08T19:30:11.310Z,83.06
2023-04-08T19:32:42.987Z,83.35
2023-04-08T19:35:15.731Z,83.67
2023-04-08T19:37:45.773Z,84.10
2023-04-08T19:40:19.688Z,83.82
2023-04-08T19:42:49.624Z,83.63
2023-04-08T19:45:20.297Z,84.15
2023-04-08T19:47:50.522Z,83.50
2023-04-08T19:50:22.396Z,83.91
2023-04-08T19:52:52.425Z,84.06
2023-04-08T19:55:25.316Z,84.28
2023-04-08T19:57:55.860Z,83.91
2023-04-08T20:00:26.326Z,84.38
2023-04-08T20:02:56.657Z,83.83
2023-04-08T20:05:26.839Z,83.79
2023-04-08T20:07:56.915Z,83.94
2023-04-08T20:10:29.473Z,84.33
2023-04-08T20:12:59.384Z,84.36
2023-04-08T20:15:29.579Z,84.25
2023-04-08T20:17:59.697Z,84.25
2023-04-08T20:20:30.087Z,84.28
2023-04-08T20:23:00.120Z,84.14
2023-04-08T20:25:32.866Z,84.41
2023-04-08T20:28:03.450Z,84.30
2023-04-08T20:30:33.466Z,84.87
2023-04-08T20:33:03.428Z,84.89
2023-04-08T20:35:33.507Z,85.10
2023-04-08T20:38:03.381Z,85.11
2023-04-08T20:40:38.669Z,85.19
2023-04-08T20:43:08.487Z,84.99
2023-04-08T20:45:40.003Z,85.08
2023-04-08T20:48:10.315Z,85.08
2023-04-08T20:50:40.419Z,84.98
2023-04-08T20:53:10.471Z,85.14
2023-04-08T20:55:43.104Z,85.34
2023-04-08T20:58:13.024Z,85.23
2023-04-08T21:00:42.998Z,85.44
2023-04-08T21:03:13.337Z,85.39
2023-04-08T21:05:43.417Z,85.45
2023-04-08T21:08:13.369Z,85.33
2023-04-08T21:10:46.326Z,85.42
2023-04-08T21:13:16.509Z,85.37
2023-04-08T21:15:46.598Z,85.50
2023-04-08T21:18:16.769Z,85.41
2023-04-08T21:20:46.725Z,85.10
2023-04-08T21:23:16.622Z,85.52
2023-04-08T21:25:49.199Z,85.61
2023-04-08T21:28:19.207Z,85.66
2023-04-08T21:30:49.093Z,85.65
2023-04-08T21:33:19.052Z,85.55
2023-04-08T21:35:48.983Z,85.71
2023-04-08T21:38:19.152Z,85.42
2023-04-08T21:40:51.559Z,85.47
2023-04-08T21:43:22.124Z,85.94
2023-04-08T21:45:53.599Z,85.81
2023-04-08T21:48:24.186Z,85.64
2023-04-08T21:50:54.083Z,85.55
2023-04-08T21:53:24.342Z,85.65
2023-04-08T21:55:56.876Z,85.73
2023-04-08T21:58:28.437Z,85.46
2023-04-08T22:00:58.378Z,85.73
2023-04-08T22:03:29.550Z,85.33
2023-04-08T22:05:59.555Z,85.40
2023-04-08T22:08:30.758Z,85.75
2023-04-08T22:11:03.505Z,85.97
2023-04-08T22:13:33.392Z,86.15
2023-04-08T22:16:03.346Z,86.11
2023-04-08T22:18:33.520Z,86.29
2023-04-08T22:21:03.375Z,86.15
2023-04-08T22:23:33.431Z,86.29
2023-04-08T22:26:06.002Z,85.94
2023-04-08T22:28:35.911Z,86.36
2023-04-08T22:31:06.099Z,86.05
2023-04-08T22:33:36.621Z,86.50
2023-04-08T22:36:07.206Z,86.65
2023-04-08T22:38:37.373Z,86.47
2023-04-08T22:41:09.891Z,86.37
2023-04-08T22:43:40.112Z,86.20
2023-04-08T22:46:10.302Z,86.30
2023-04-08T22:48:40.549Z,86.60
2023-04-08T22:51:11.518Z,85.64
2023-04-08T22:53:42.382Z,86.45
2023-04-08T22:56:15.533Z,86.48
2023-04-08T22:58:45.658Z,85.98
2023-04-08T23:01:17.279Z,86.37
2023-04-08T23:03:47.304Z,86.03
2023-04-08T23:06:17.489Z,86.55
2023-04-08T23:08:47.296Z,86.38
2023-04-08T23:11:19.915Z,86.51
2023-04-08T23:13:49.791Z,86.29
2023-04-08T23:16:19.794Z,86.60
2023-04-08T23:18:52.913Z,86.72
2023-04-08T23:21:23.667Z,86.53
2023-04-08T23:23:53.551Z,86.52
2023-04-08T23:26:26.045Z,86.44
2023-04-08T23:28:56.130Z,86.82
2023-04-08T23:31:26.070Z,86.32
2023-04-08T23:33:56.030Z,86.40
2023-04-08T23:36:25.885Z,87.17
2023-04-08T23:38:55.698Z,87.50
2023-04-08T23:41:28.267Z,87.55
2023-04-08T23:43:58.175Z,87.35
2023-04-08T23:46:28.157Z,88.06
2023-04-08T23:48:58.118Z,87.94
2023-04-08T23:51:28.141Z,87.89
2023-04-08T23:53:57.959Z,88.08
2023-04-08T23:56:30.729Z,87.56
2023-04-08T23:59:00.737Z,87.95
